Time;durP1;ratioP1;P1;durP2;ratioP2;P2;SDS_P1;SDS_P2;PMS_P1;PMS_P2;Temp;Humidity;BMP_temperature;BMP_pressure;BME280_temperature;BME280_humidity;BME280_pressure;Samples;Min_cycle;Max_cycle;Signal;HPM_P1;HPM_P2
2021/03/04 00:01:09;;;;;;;27.90;16.20;;;;;;;-0.35;92.69;99347.13;1787461;80;21164;-64
2021/03/04 00:03:36;;;;;;;31.40;16.67;;;;;;;-0.32;92.76;99343.89;1787457;80;21152;-61
2021/03/04 00:06:05;;;;;;;29.67;17.15;;;;;;;-0.24;92.80;99342.69;1787487;80;21139;-61
2021/03/04 00:08:33;;;;;;;34.20;17.87;;;;;;;-0.20;92.67;99339.56;1787773;80;21151;-61
2021/03/04 00:11:01;;;;;;;31.07;17.30;;;;;;;-0.14;92.65;99337.37;1787503;80;21140;-61
2021/03/04 00:13:29;;;;;;;32.25;16.97;;;;;;;-0.06;92.56;99326.01;1787714;80;21152;-61
2021/03/04 00:15:56;;;;;;;32.17;17.90;;;;;;;0.00;92.30;99324.25;1787542;80;21306;-60
2021/03/04 00:18:25;;;;;;;32.60;17.92;;;;;;;0.03;92.18;99313.00;1787508;80;21199;-60
2021/03/04 00:20:53;;;;;;;35.85;18.75;;;;;;;0.07;92.09;99314.91;1787649;80;21167;-59
2021/03/04 00:23:20;;;;;;;37.23;19.05;;;;;;;0.10;91.94;99318.02;1787621;80;21278;-59
2021/03/04 00:25:48;;;;;;;35.43;19.70;;;;;;;0.16;91.95;99309.51;1784601;80;21144;-63
2021/03/04 00:28:16;;;;;;;37.78;20.25;;;;;;;0.19;91.79;99300.39;1779220;81;21137;-60
2021/03/04 00:30:44;;;;;;;35.38;18.75;;;;;;;0.21;91.69;99300.09;1779204;80;21263;-62
2021/03/04 00:33:12;;;;;;;39.27;20.55;;;;;;;0.20;91.65;99289.48;1779276;80;21148;-62
2021/03/04 00:35:40;;;;;;;40.23;20.45;;;;;;;0.17;91.60;99296.89;1779442;81;21303;-61
2021/03/04 00:38:08;;;;;;;36.40;19.77;;;;;;;0.18;91.79;99292.72;1779556;80;21305;-58
2021/03/04 00:40:35;;;;;;;39.50;20.27;;;;;;;0.17;91.75;99288.00;1779166;81;21152;-60
2021/03/04 00:43:04;;;;;;;40.58;18.75;;;;;;;0.16;91.82;99273.98;1779329;81;21152;-58
2021/03/04 00:45:32;;;;;;;39.92;20.40;;;;;;;0.16;91.93;99274.85;1779328;80;21310;-59
2021/03/04 00:48:02;;;;;;;34.92;19.05;;;;;;;0.17;92.05;99274.05;1778290;80;21112;-59
2021/03/04 00:50:30;;;;;;;37.83;19.23;;;;;;;0.19;92.12;99275.42;1779581;80;21156;-61
2021/03/04 00:52:58;;;;;;;39.42;20.80;;;;;;;0.23;92.21;99263.39;1779411;80;21298;-61
2021/03/04 00:55:25;;;;;;;39.63;19.05;;;;;;;0.24;92.11;99254.11;1779262;81;21337;-62
2021/03/04 00:57:54;;;;;;;36.08;19.25;;;;;;;0.26;92.27;99257.62;1779202;81;21306;-64
2021/03/04 01:00:22;;;;;;;38.90;21.00;;;;;;;0.23;92.22;99256.15;1779365;81;21286;-63
2021/03/04 01:02:50;;;;;;;42.93;22.45;;;;;;;0.25;92.46;99242.75;1779389;81;21180;-62
2021/03/04 01:05:18;;;;;;;43.10;22.25;;;;;;;0.23;92.47;99240.55;1779384;80;21160;-63
2021/03/04 01:07:46;;;;;;;39.13;20.75;;;;;;;0.28;92.53;99235.70;1779191;80;21164;-63
2021/03/04 01:10:19;;;;;;;42.78;21.45;;;;;;;0.22;92.56;99226.09;1779297;81;21291;-62
2021/03/04 01:12:47;;;;;;;38.58;19.98;;;;;;;0.23;92.78;99222.78;1779185;80;21314;-58
2021/03/04 01:15:18;;;;;;;35.90;19.00;;;;;;;0.29;92.91;99219.71;1779288;80;21148;-63
2021/03/04 01:17:46;;;;;;;;;;;;;;;0.34;92.95;99209.02;1782128;81;21306;-63
2021/03/04 01:20:17;;;;;;;40.00;20.27;;;;;;;0.32;92.81;99210.98;1779296;80;20124;-63
2021/03/04 01:22:45;;;;;;;41.45;20.17;;;;;;;0.27;92.94;99203.52;1779287;81;21156;-63
2021/03/04 01:25:16;;;;;;;38.00;19.73;;;;;;;0.30;93.20;99193.13;1779373;80;21156;-61
2021/03/04 01:27:47;;;;;;;41.37;20.40;;;;;;;0.31;93.20;99185.14;1752396;82;21699;-61
2021/03/04 01:30:17;;;;;;;41.28;19.25;;;;;;;0.34;93.36;99184.03;1752483;81;21168;-61
2021/03/04 01:32:45;;;;;;;39.25;20.10;;;;;;;0.37;93.48;99176.17;1752401;81;21183;-64
2021/03/04 01:35:15;;;;;;;42.65;20.40;;;;;;;0.35;93.30;99169.27;1752254;81;21234;-60
2021/03/04 01:37:44;;;;;;;42.73;21.80;;;;;;;0.33;93.56;99177.19;1752324;81;21160;-61
2021/03/04 01:40:16;;;;;;;41.35;20.92;;;;;;;0.34;93.54;99177.69;1752271;81;21113;-59
2021/03/04 01:42:44;;;;;;;;;;;;;;;0.33;93.61;99171.74;1754904;81;21338;-63
2021/03/04 01:45:12;;;;;;;47.23;23.07;;;;;;;0.35;93.82;99166.33;1752335;81;20175;-61
2021/03/04 01:47:43;;;;;;;42.73;23.02;;;;;;;0.35;93.84;99164.19;1752637;81;21318;-58
2021/03/04 01:50:12;;;;;;;41.73;21.68;;;;;;;0.40;93.93;99158.97;1752619;82;21708;-59
2021/03/04 01:52:40;;;;;;;47.60;23.55;;;;;;;0.44;93.88;99155.81;1752569;81;21175;-57
2021/03/04 01:55:09;;;;;;;46.70;22.35;;;;;;;0.47;93.79;99153.44;1752460;81;21352;-60
2021/03/04 01:57:38;;;;;;;48.15;23.45;;;;;;;0.47;93.83;99143.28;1752303;81;21128;-57
2021/03/04 02:00:08;;;;;;;45.73;23.67;;;;;;;0.47;93.88;99144.55;1752462;81;21201;-64
2021/03/04 02:02:36;;;;;;;55.17;23.38;;;;;;;0.51;94.02;99136.31;1752575;81;21160;-60
2021/03/04 02:05:10;;;;;;;56.13;25.35;;;;;;;0.49;93.80;99134.48;1752498;81;21148;-61
2021/03/04 02:08:14;;;;;;;49.40;23.20;;;;;;;0.49;93.93;99116.72;1752502;81;21156;-64
2021/03/04 02:11:04;;;;;;;53.78;24.47;;;;;;;0.51;93.99;99110.92;1751765;81;21152;-62
2021/03/04 02:14:01;;;;;;;60.85;29.48;;;;;;;0.51;94.03;99109.66;1752377;81;21277;-61
2021/03/04 02:16:39;;;;;;;56.95;27.17;;;;;;;0.52;94.03;99105.44;1738108;82;21180;-60
2021/03/04 02:19:23;;;;;;;57.85;26.48;;;;;;;0.52;94.19;99106.31;1751148;82;21156;-58
2021/03/04 02:22:15;;;;;;;59.90;30.35;;;;;;;0.57;94.38;99104.02;1751039;81;21124;-58
2021/03/04 02:25:06;;;;;;;57.47;27.77;;;;;;;0.63;94.44;99105.59;1752030;81;21120;-62
2021/03/04 02:27:39;;;;;;;54.45;26.30;;;;;;;0.67;94.33;99096.49;1781551;80;21435;-60
2021/03/04 02:30:17;;;;;;;59.95;30.15;;;;;;;0.69;94.28;99088.53;1787802;80;21191;-60
2021/03/04 02:32:52;;;;;;;55.43;27.45;;;;;;;0.72;94.36;99087.44;1787582;80;21143;-61
2021/03/04 02:35:25;;;;;;;59.20;28.35;;;;;;;0.74;94.33;99080.38;1787557;80;21156;-61
2021/03/04 02:38:00;;;;;;;63.05;27.20;;;;;;;0.77;94.49;99074.18;1786454;80;21163;-60
2021/03/04 02:40:30;;;;;;;53.05;25.90;;;;;;;0.77;94.32;99063.16;1787542;80;21708;-60
2021/03/04 02:43:01;;;;;;;60.03;27.70;;;;;;;0.74;94.41;99058.79;1787700;80;21128;-60
2021/03/04 02:45:31;;;;;;;56.77;25.77;;;;;;;0.76;94.54;99054.63;1787913;80;21144;-61
2021/03/04 02:48:00;;;;;;;54.88;26.55;;;;;;;0.81;94.70;99057.41;1787708;80;21306;-60
2021/03/04 02:50:29;;;;;;;61.08;26.62;;;;;;;0.89;94.60;99051.45;1787682;80;21159;-61
2021/03/04 02:52:58;;;;;;;56.80;27.25;;;;;;;0.86;94.37;99049.22;1787779;80;21156;-58
2021/03/04 02:55:27;;;;;;;50.70;26.52;;;;;;;0.84;94.43;99047.03;1787562;80;21160;-60
2021/03/04 02:57:56;;;;;;;57.75;27.67;;;;;;;0.84;94.48;99039.41;1787826;80;21306;-58
2021/03/04 03:00:27;;;;;;;66.72;27.75;;;;;;;0.84;94.62;99030.52;1787517;80;21186;-60
2021/03/04 03:02:59;;;;;;;61.53;27.63;;;;;;;0.85;94.67;99028.84;1787812;80;21141;-57
2021/03/04 03:05:32;;;;;;;62.65;27.82;;;;;;;0.83;94.64;99022.81;1787725;80;21156;-59
2021/03/04 03:08:01;;;;;;;60.83;29.45;;;;;;;0.84;94.76;99015.65;1787562;80;21309;-63
2021/03/04 03:10:31;;;;;;;68.70;30.88;;;;;;;0.84;94.75;99010.56;1787753;80;21290;-61
2021/03/04 03:13:00;;;;;;;60.63;29.10;;;;;;;0.88;94.98;99004.86;1787757;80;21152;-59
2021/03/04 03:15:28;;;;;;;70.55;30.65;;;;;;;0.91;94.92;99005.41;1787740;80;21282;-59
2021/03/04 03:17:56;;;;;;;69.92;29.90;;;;;;;0.95;95.02;99006.91;1787791;80;21151;-60
2021/03/04 03:20:25;;;;;;;69.65;31.73;;;;;;;0.97;94.90;99004.05;1787539;80;21148;-61
2021/03/04 03:22:53;;;;;;;63.65;29.90;;;;;;;0.97;94.90;99001.91;1787540;80;21278;-61
2021/03/04 03:25:21;;;;;;;62.58;31.07;;;;;;;0.97;94.88;99006.59;1787824;80;21567;-60
2021/03/04 03:27:49;;;;;;;66.90;31.12;;;;;;;0.93;94.84;99001.28;1787772;80;21159;-63
2021/03/04 03:30:21;;;;;;;66.07;30.90;;;;;;;0.95;95.06;98994.20;1787529;80;21135;-61
2021/03/04 03:33:05;;;;;;;73.37;32.20;;;;;;;0.96;95.17;98984.91;1787566;80;21321;-60
2021/03/04 03:35:36;;;;;;;70.05;32.85;;;;;;;0.96;95.23;98984.50;1787734;80;21183;-60
2021/03/04 03:38:06;;;;;;;70.75;33.42;;;;;;;0.98;95.40;98975.70;1787840;80;21132;-61
2021/03/04 03:40:38;;;;;;;70.90;32.00;;;;;;;1.01;95.29;98973.30;1787570;80;21195;-62
2021/03/04 03:43:11;;;;;;;69.03;31.52;;;;;;;1.02;95.21;98968.30;1787806;80;21338;-62
2021/03/04 03:45:42;;;;;;;72.08;32.35;;;;;;;1.03;95.23;98956.06;1787415;80;21147;-62
2021/03/04 03:48:13;;;;;;;68.62;32.20;;;;;;;1.07;95.22;98951.61;1787808;80;21180;-62
2021/03/04 03:50:43;;;;;;;71.22;32.50;;;;;;;1.09;95.17;98955.48;1787624;80;21154;-61
2021/03/04 03:53:13;;;;;;;70.37;32.35;;;;;;;1.12;95.16;98954.75;1787715;80;21124;-60
2021/03/04 03:55:48;;;;;;;74.75;33.48;;;;;;;1.11;95.09;98951.34;1787864;80;21289;-63
2021/03/04 03:58:18;;;;;;;71.92;31.55;;;;;;;1.08;95.10;98946.98;1787108;80;21132;-61
2021/03/04 04:00:47;;;;;;;72.97;35.38;;;;;;;1.10;95.26;98938.58;1787614;80;21156;-60
2021/03/04 04:03:16;;;;;;;73.72;33.63;;;;;;;1.15;95.32;98930.78;1787689;80;21281;-62
2021/03/04 04:05:44;;;;;;;67.85;32.13;;;;;;;1.20;95.23;98922.97;1787713;80;21172;-61
2021/03/04 04:08:13;;;;;;;69.55;32.13;;;;;;;1.24;95.09;98919.76;1787666;80;21160;-64
2021/03/04 04:10:41;;;;;;;74.00;32.15;;;;;;;1.24;94.86;98905.77;1787606;80;21124;-60
2021/03/04 04:13:11;;;;;;;61.23;30.23;;;;;;;1.22;94.77;98901.91;1786060;80;21290;-65
2021/03/04 04:15:39;;;;;;;64.40;32.80;;;;;;;1.22;94.73;98893.39;1787708;80;21314;-59
2021/03/04 04:18:08;;;;;;;60.45;29.05;;;;;;;1.19;94.63;98876.33;1787491;80;21231;-60
2021/03/04 04:20:38;;;;;;;62.15;29.67;;;;;;;1.16;94.43;98881.27;1785174;79;21767;-63
2021/03/04 04:23:07;;;;;;;66.12;31.40;;;;;;;1.11;94.44;98875.51;1787543;80;21159;-64
2021/03/04 04:25:40;;;;;;;61.80;30.15;;;;;;;1.06;94.38;98876.16;1787480;80;21156;-62
2021/03/04 04:28:08;;;;;;;68.67;31.93;;;;;;;1.01;94.42;98871.26;1778333;80;21769;-61
2021/03/04 04:30:35;;;;;;;63.15;29.32;;;;;;;0.99;94.54;98861.45;1779293;81;21286;-64
2021/03/04 04:33:03;;;;;;;61.60;30.37;;;;;;;1.00;94.57;98857.23;1779567;81;21283;-59
2021/03/04 04:35:31;;;;;;;69.53;31.30;;;;;;;0.99;94.42;98864.36;1779304;81;21148;-62
2021/03/04 04:37:59;;;;;;;62.03;30.72;;;;;;;0.97;94.43;98852.01;1779405;81;21303;-62
2021/03/04 04:40:27;;;;;;;63.08;31.73;;;;;;;0.95;94.52;98848.11;1779241;80;21301;-62
2021/03/04 04:42:54;;;;;;;69.22;32.23;;;;;;;0.97;94.47;98852.01;1779196;80;21148;-61
2021/03/04 04:45:22;;;;;;;71.65;32.67;;;;;;;0.96;94.43;98848.57;1779480;80;21223;-62
2021/03/04 04:47:50;;;;;;;67.78;30.37;;;;;;;0.98;94.39;98854.60;1779228;81;21282;-60
2021/03/04 04:50:18;;;;;;;69.17;33.23;;;;;;;0.93;94.15;98856.06;1779396;80;21187;-62
2021/03/04 04:52:46;;;;;;;64.90;30.65;;;;;;;0.87;94.26;98854.51;1779485;81;21183;-61
2021/03/04 04:55:14;;;;;;;62.98;32.23;;;;;;;0.84;94.34;98847.61;1779336;80;21294;-60
2021/03/04 04:57:42;;;;;;;65.52;32.73;;;;;;;0.80;94.35;98839.77;1779357;80;21160;-63
2021/03/04 05:00:12;;;;;;;68.22;32.78;;;;;;;0.82;94.43;98837.77;1779335;81;21156;-64
2021/03/04 05:02:40;;;;;;;68.07;33.48;;;;;;;0.85;94.31;98835.78;1779210;80;21144;-61
2021/03/04 05:05:09;;;;;;;59.50;31.30;;;;;;;0.92;94.16;98831.87;1779334;80;21137;-60
2021/03/04 05:07:37;;;;;;;64.60;31.40;;;;;;;1.07;94.20;98826.23;1779226;81;21144;-63
2021/03/04 05:10:06;;;;;;;68.92;32.50;;;;;;;1.36;94.09;98830.08;1779313;81;21310;-66
2021/03/04 05:12:35;;;;;;;62.67;30.85;;;;;;;1.79;93.46;98822.21;1779217;81;21164;-59
2021/03/04 05:15:12;;;;;;;69.32;30.45;;;;;;;2.32;91.99;98806.64;1779295;81;21176;-62
2021/03/04 05:17:40;;;;;;;58.42;27.98;;;;;;;2.85;90.29;98801.95;1779290;81;21152;-62
2021/03/04 05:20:11;;;;;;;59.35;30.40;;;;;;;3.42;87.68;98813.01;1751247;81;21775;-62
2021/03/04 05:22:38;;;;;;;60.98;31.17;;;;;;;3.94;86.29;98807.20;1748422;82;21056;-63
2021/03/04 05:25:08;;;;;;;57.75;29.90;;;;;;;4.56;83.45;98804.61;1748617;82;21182;-65
2021/03/04 05:27:36;;;;;;;58.33;29.60;;;;;;;5.11;81.14;98805.44;1748748;82;21246;-60
2021/03/04 05:30:06;;;;;;;57.43;30.05;;;;;;;5.70;78.51;98804.55;1748433;82;21045;-60
2021/03/04 05:32:35;;;;;;;50.73;28.65;;;;;;;6.32;76.97;98801.97;1748714;82;21057;-65
2021/03/04 05:35:04;;;;;;;58.13;28.67;;;;;;;6.96;73.54;98791.95;1748617;82;21049;-64
2021/03/04 05:37:32;;;;;;;52.95;28.02;;;;;;;7.57;71.10;98794.97;1748381;82;21052;-63
2021/03/04 05:39:59;;;;;;;48.08;27.40;;;;;;;8.20;69.31;98782.88;1748430;82;21044;-65
2021/03/04 05:42:31;;;;;;;52.75;28.30;;;;;;;8.79;66.69;98782.15;1748399;82;21041;-61
2021/03/04 05:45:00;;;;;;;53.17;29.67;;;;;;;9.39;63.96;98783.39;1748738;82;21537;-59
2021/03/04 05:47:29;;;;;;;52.80;29.25;;;;;;;9.97;61.17;98780.20;1748592;82;21067;-63
2021/03/04 05:50:08;;;;;;;52.38;27.50;;;;;;;10.56;59.56;98779.94;1748569;82;21068;-61
2021/03/04 05:52:39;;;;;;;46.20;27.60;;;;;;;11.06;57.63;98785.86;1748584;82;21096;-62
2021/03/04 05:55:08;;;;;;;54.03;29.13;;;;;;;11.45;55.79;98777.91;1748689;82;21187;-63
2021/03/04 05:57:36;;;;;;;50.12;29.65;;;;;;;11.87;54.44;98787.13;1748673;82;21479;-64
2021/03/04 06:00:06;;;;;;;50.35;29.18;;;;;;;12.26;52.53;98782.48;1748589;82;21064;-63
2021/03/04 06:02:36;;;;;;;47.85;29.23;;;;;;;12.67;51.58;98780.34;1748657;82;21076;-62
2021/03/04 06:05:06;;;;;;;46.48;27.20;;;;;;;13.00;50.19;98791.09;1748379;82;21192;-63
2021/03/04 06:07:34;;;;;;;48.80;29.23;;;;;;;13.49;48.76;98785.39;1748539;82;21483;-63
2021/03/04 06:10:04;;;;;;;49.00;28.92;;;;;;;13.96;47.78;98784.29;1748396;82;21191;-62
2021/03/04 06:12:32;;;;;;;50.10;29.18;;;;;;;14.24;46.44;98774.59;1748363;82;21277;-64
2021/03/04 06:15:00;;;;;;;43.63;27.85;;;;;;;14.33;46.23;98771.95;1748446;82;21053;-62
2021/03/04 06:17:28;;;;;;;45.15;27.42;;;;;;;14.59;45.45;98763.98;1748374;82;21098;-63
2021/03/04 06:20:00;;;;;;;47.08;29.07;;;;;;;14.93;44.40;98763.25;1748375;82;21068;-63
2021/03/04 06:22:31;;;;;;;48.50;29.15;;;;;;;15.32;43.63;98767.59;1748674;82;21069;-61
2021/03/04 06:25:01;;;;;;;42.67;27.17;;;;;;;15.69;43.12;98759.36;1748736;82;21072;-65
2021/03/04 06:27:32;;;;;;;49.27;28.97;;;;;;;16.10;41.81;98749.27;1750850;82;21495;-62
2021/03/04 06:30:06;;;;;;;43.15;26.82;;;;;;;16.42;41.46;98748.33;1756586;82;21187;-65
2021/03/04 06:32:35;;;;;;;43.95;27.02;;;;;;;16.89;39.83;98745.41;1756529;82;21241;-63
2021/03/04 06:35:10;;;;;;;44.27;27.60;;;;;;;17.06;39.72;98737.70;1756370;82;21055;-62
2021/03/04 06:37:45;;;;;;;45.52;27.62;;;;;;;17.26;38.64;98730.80;1756196;82;21056;-63
2021/03/04 06:40:33;;;;;;;46.63;28.45;;;;;;;17.53;38.32;98725.02;1756465;82;21052;-63
2021/03/04 06:43:02;;;;;;;40.40;26.35;;;;;;;17.77;37.64;98723.62;1756732;81;21190;-62
2021/03/04 06:45:36;;;;;;;45.75;27.98;;;;;;;18.30;37.21;98730.30;1756704;82;21198;-62
2021/03/04 06:48:21;;;;;;;45.70;29.80;;;;;;;18.88;35.87;98717.10;1755763;82;21104;-60
2021/03/04 06:50:59;;;;;;;45.03;29.32;;;;;;;19.12;35.08;98723.41;1756686;82;21043;-64
2021/03/04 06:53:29;;;;;;;42.27;28.92;;;;;;;19.26;34.85;98718.66;1756445;81;21056;-65
2021/03/04 06:56:06;;;;;;;42.85;29.98;;;;;;;19.45;34.40;98711.59;1756731;82;21458;-64
2021/03/04 06:58:41;;;;;;;44.73;27.80;;;;;;;19.73;33.73;98709.03;1756681;82;21222;-64
2021/03/04 07:01:16;;;;;;;47.83;29.35;;;;;;;19.85;33.63;98707.81;1756685;82;21064;-62
2021/03/04 07:03:49;;;;;;;40.38;27.35;;;;;;;20.04;33.40;98712.87;1756631;82;21083;-62
2021/03/04 07:06:25;;;;;;;42.73;28.62;;;;;;;20.39;32.83;98719.59;1752938;82;21036;-62
2021/03/04 07:08:54;;;;;;;39.67;26.50;;;;;;;20.57;31.59;98720.78;1756530;81;21064;-60
2021/03/04 07:11:24;;;;;;;40.25;26.37;;;;;;;20.66;31.83;98703.02;1756512;82;21095;-63
2021/03/04 07:13:53;;;;;;;37.30;26.50;;;;;;;20.72;31.84;98709.38;1756662;82;21028;-64
2021/03/04 07:16:47;;;;;;;39.55;26.85;;;;;;;21.11;31.11;98705.80;1756831;81;21209;-63
2021/03/04 07:19:16;;;;;;;;;;;;;;;21.35;30.74;98694.03;1758927;81;21210;-62
2021/03/04 07:21:48;;;;;;;41.18;26.95;;;;;;;21.41;30.85;98690.73;1756653;82;20403;-61
2021/03/04 07:24:17;;;;;;;39.78;27.55;;;;;;;21.54;30.60;98696.38;1755630;82;21095;-61
2021/03/04 07:26:45;;;;;;;43.17;28.90;;;;;;;21.75;30.38;98674.98;1756328;82;21032;-60
2021/03/04 07:29:14;;;;;;;39.88;26.52;;;;;;;22.09;29.68;98677.61;1755722;81;21159;-61
2021/03/04 07:31:46;;;;;;;38.75;27.25;;;;;;;21.97;29.89;98678.09;1755194;82;21190;-59
2021/03/04 07:34:17;;;;;;;35.05;24.92;;;;;;;21.96;29.39;98669.83;1755841;82;21250;-64
2021/03/04 07:36:50;;;;;;;42.62;27.40;;;;;;;22.09;29.62;98669.72;1756243;82;21541;-63
2021/03/04 07:39:29;;;;;;;36.93;25.83;;;;;;;22.25;29.21;98669.98;1756424;82;21194;-61
2021/03/04 07:42:06;;;;;;;41.83;30.43;;;;;;;22.49;29.28;98654.93;1873722;76;27951;-61
2021/03/04 07:44:33;;;;;;;37.08;27.05;;;;;;;22.40;29.08;98650.93;1758237;80;21150;-63
2021/03/04 07:47:07;;;;;;;37.98;26.55;;;;;;;22.14;28.98;98651.14;1810322;79;21139;-62
2021/03/04 07:49:43;;;;;;;36.30;26.07;;;;;;;21.92;29.20;98640.17;1791645;80;21134;-63
2021/03/04 07:52:19;;;;;;;34.83;24.98;;;;;;;21.82;29.44;98635.74;1791556;80;21320;-63
2021/03/04 07:54:51;;;;;;;37.17;26.85;;;;;;;21.76;29.53;98643.03;1810293;79;21107;-61
2021/03/04 07:57:23;;;;;;;36.77;26.23;;;;;;;21.56;29.57;98638.55;1791889;80;21292;-65
2021/03/04 08:00:04;;;;;;;33.08;24.05;;;;;;;21.34;29.97;98625.36;1791666;80;21122;-62
2021/03/04 08:02:43;;;;;;;37.00;25.32;;;;;;;21.11;30.35;98627.55;1810486;78;21139;-62
2021/03/04 08:05:23;;;;;;;35.23;24.50;;;;;;;20.85;30.51;98625.42;1791681;80;21513;-62
2021/03/04 08:07:51;;;;;;;37.50;24.20;;;;;;;20.59;31.16;98604.92;1789041;80;21148;-61
2021/03/04 08:10:23;;;;;;;33.53;23.75;;;;;;;20.46;31.26;98604.08;1810230;79;21123;-64
2021/03/04 08:13:02;;;;;;;34.90;25.08;;;;;;;20.52;31.53;98603.39;1791588;80;21177;-63
2021/03/04 08:15:44;;;;;;;35.95;25.60;;;;;;;20.84;31.15;98605.36;1791809;80;21161;-60
2021/03/04 08:18:22;;;;;;;35.50;25.40;;;;;;;21.04;30.71;98599.39;1810459;79;21277;-64
2021/03/04 08:20:53;;;;;;;37.03;24.67;;;;;;;20.93;30.77;98601.07;1791577;80;21358;-64
2021/03/04 08:23:21;;;;;;;37.77;25.97;;;;;;;20.57;31.11;98584.45;1791919;80;21296;-63
2021/03/04 08:25:50;;;;;;;38.30;27.65;;;;;;;20.23;31.77;98587.84;1810277;79;21384;-62
2021/03/04 08:28:23;;;;;;;42.05;27.85;;;;;;;19.81;32.27;98587.04;1791545;80;21296;-62
2021/03/04 08:30:51;;;;;;;39.58;28.05;;;;;;;19.20;33.13;98574.93;1791477;80;21292;-64
2021/03/04 08:33:21;;;;;;;39.30;27.45;;;;;;;18.75;34.05;98575.80;1810263;78;21119;-60
2021/03/04 08:35:50;;;;;;;38.33;27.10;;;;;;;18.33;34.55;98565.19;1791605;80;21146;-61
2021/03/04 08:38:21;;;;;;;38.42;25.48;;;;;;;17.88;35.25;98565.47;1791529;80;21150;-63
2021/03/04 08:40:55;;;;;;;37.58;24.27;;;;;;;17.33;36.09;98577.21;1806083;79;21190;-63
2021/03/04 08:43:29;;;;;;;37.23;25.20;;;;;;;16.92;36.99;98562.03;1855261;77;21110;-62
2021/03/04 08:46:03;;;;;;;39.10;27.22;;;;;;;16.69;37.55;98563.33;1783378;80;21723;-61
2021/03/04 08:48:32;;;;;;;36.65;24.72;;;;;;;16.62;37.81;98551.75;1826450;77;21278;-61
2021/03/04 08:51:06;;;;;;;40.15;26.73;;;;;;;16.34;38.39;98544.47;1821902;79;21157;-60
2021/03/04 08:53:35;;;;;;;37.15;23.12;;;;;;;16.17;38.55;98553.89;1821576;79;21295;-62
2021/03/04 08:56:06;;;;;;;37.45;24.20;;;;;;;16.10;39.01;98539.71;1821429;79;21120;-62
2021/03/04 08:58:42;;;;;;;40.67;26.42;;;;;;;16.24;38.62;98546.39;1821181;79;21530;-62
2021/03/04 09:01:12;;;;;;;36.28;24.30;;;;;;;16.11;38.82;98529.28;1825480;77;21115;-62
2021/03/04 09:03:44;;;;;;;36.08;24.60;;;;;;;15.82;39.27;98529.37;1819281;77;21262;-63
2021/03/04 09:06:16;;;;;;;37.98;23.52;;;;;;;15.20;40.43;98505.19;1751318;82;21155;-63
2021/03/04 09:08:48;;;;;;;38.65;25.25;;;;;;;14.63;41.70;98502.09;1820179;79;21154;-62
2021/03/04 09:11:35;;;;;;;40.43;25.43;;;;;;;14.38;42.22;98501.50;1820995;77;21204;-61
2021/03/04 09:14:05;;;;;;;39.40;26.02;;;;;;;14.06;42.97;98473.30;1821324;77;21295;-62
2021/03/04 09:16:50;;;;;;;43.25;26.55;;;;;;;13.60;43.87;98472.03;1782349;79;21295;-62
2021/03/04 09:19:33;;;;;;;41.08;26.23;;;;;;;13.24;44.64;98471.44;1821310;79;21146;-61
2021/03/04 09:22:10;;;;;;;42.80;26.33;;;;;;;13.03;45.17;98480.23;1821678;79;21275;-61
2021/03/04 09:24:39;;;;;;;40.12;25.45;;;;;;;12.91;45.82;98476.86;1821439;79;21145;-63
2021/03/04 09:27:10;;;;;;;44.73;27.70;;;;;;;12.83;46.34;98464.40;1821182;77;21162;-62
2021/03/04 09:29:42;;;;;;;42.35;26.07;;;;;;;12.83;46.18;98466.98;1821021;77;21204;-61
2021/03/04 09:32:12;;;;;;;45.50;27.27;;;;;;;12.76;46.36;98468.30;1845329;77;21280;-62
2021/03/04 09:34:45;;;;;;;48.85;27.30;;;;;;;12.75;46.11;98464.45;1854911;77;21260;-62
2021/03/04 09:37:27;;;;;;;41.23;24.98;;;;;;;12.75;46.34;98460.13;1769335;80;21153;-62
2021/03/04 09:39:56;;;;;;;44.58;25.85;;;;;;;12.71;46.53;98457.55;1854932;77;21327;-62
2021/03/04 09:42:39;;;;;;;45.35;27.98;;;;;;;12.68;47.09;98459.72;1846631;77;21268;-61
2021/03/04 09:45:09;;;;;;;43.83;26.73;;;;;;;12.56;47.19;98444.25;1846093;77;21139;-62
2021/03/04 09:47:47;;;;;;;45.43;27.00;;;;;;;12.28;47.73;98439.21;1755914;80;21292;-62
2021/03/04 09:50:24;;;;;;;48.78;28.17;;;;;;;12.19;48.42;98422.86;1815815;78;21178;-62
2021/03/04 09:53:07;;;;;;;49.05;28.60;;;;;;;12.00;48.60;98441.48;1812824;79;21198;-62
2021/03/04 09:55:43;;;;;;;46.28;27.58;;;;;;;11.91;49.18;98425.14;1812813;79;21146;-63
2021/03/04 09:58:18;;;;;;;49.58;29.05;;;;;;;11.93;49.54;98426.00;1812875;78;21290;-63
2021/03/04 10:00:48;;;;;;;46.70;27.85;;;;;;;11.85;50.15;98412.17;1839351;78;21689;-63
2021/03/04 10:03:17;;;;;;;48.25;27.35;;;;;;;11.83;50.07;98416.92;1771226;80;21668;-62
2021/03/04 10:05:50;;;;;;;46.35;28.10;;;;;;;11.72;50.32;98413.08;1846037;78;21159;-61
2021/03/04 10:08:18;;;;;;;47.55;27.95;;;;;;;11.67;50.47;98414.82;1747315;81;21156;-61
2021/03/04 10:10:50;;;;;;;44.85;28.10;;;;;;;11.57;50.85;98397.61;1812543;79;21152;-62
2021/03/04 10:13:31;;;;;;;50.33;29.77;;;;;;;11.34;51.22;98398.51;1812882;79;21152;-62
2021/03/04 10:16:13;;;;;;;51.60;27.93;;;;;;;11.16;51.56;98403.27;1813122;78;21103;-60
2021/03/04 10:18:46;;;;;;;43.87;25.75;;;;;;;11.08;51.79;98391.64;1812621;78;21134;-67
2021/03/04 10:21:16;;;;;;;43.33;26.50;;;;;;;11.18;53.54;98389.06;1812960;78;21285;-66
2021/03/04 10:23:47;;;;;;;47.85;28.10;;;;;;;11.48;53.55;98380.42;1812710;78;21561;-65
2021/03/04 10:26:16;;;;;;;42.55;25.45;;;;;;;12.23;53.06;98347.83;1812903;79;21304;-65
2021/03/04 10:28:44;;;;;;;42.17;25.97;;;;;;;12.95;51.68;98349.92;1812749;78;21281;-66
2021/03/04 10:31:12;;;;;;;45.83;26.87;;;;;;;13.33;48.96;98361.70;1813132;79;21134;-66
2021/03/04 10:33:40;;;;;;;37.17;23.73;;;;;;;13.47;48.58;98371.92;1812866;79;21321;-64
2021/03/04 10:36:11;;;;;;;43.85;25.37;;;;;;;13.66;49.10;98355.72;1812744;79;21131;-65
2021/03/04 10:38:39;;;;;;;45.30;26.37;;;;;;;14.30;47.78;98333.31;1812691;79;21147;-64
2021/03/04 10:41:06;;;;;;;45.25;26.77;;;;;;;14.71;46.41;98357.39;1815941;78;21158;-65
2021/03/04 10:43:34;;;;;;;43.48;26.75;;;;;;;14.94;45.73;98332.34;1827035;77;21131;-64
2021/03/04 10:46:03;;;;;;;45.52;27.17;;;;;;;15.13;44.70;98312.53;1827095;77;21142;-62
2021/03/04 10:48:31;;;;;;;44.58;27.82;;;;;;;14.94;43.86;98323.70;1822434;77;21277;-61
2021/03/04 10:50:59;;;;;;;43.80;27.80;;;;;;;14.33;44.97;98328.08;1815241;77;21259;-61
2021/03/04 10:53:26;;;;;;;39.63;25.52;;;;;;;13.87;45.79;98309.24;1817432;78;21110;-60
2021/03/04 10:55:54;;;;;;;45.73;27.37;;;;;;;13.56;46.38;98317.40;1820132;78;21119;-61
2021/03/04 10:58:22;;;;;;;45.70;27.67;;;;;;;13.36;46.89;98320.65;1816858;78;21314;-63
2021/03/04 11:00:51;;;;;;;49.58;29.00;;;;;;;13.04;47.27;98317.89;1818954;77;21144;-62
2021/03/04 11:03:21;;;;;;;41.42;25.97;;;;;;;12.61;47.94;98311.78;1816706;78;21155;-61
2021/03/04 11:05:48;;;;;;;43.78;26.82;;;;;;;12.24;48.87;98317.23;1812908;78;21342;-63
2021/03/04 11:08:17;;;;;;;42.20;25.88;;;;;;;12.01;49.29;98299.26;1809013;78;21176;-61
2021/03/04 11:10:47;;;;;;;45.00;24.98;;;;;;;11.79;50.09;98320.44;1818605;78;21571;-62
2021/03/04 11:13:16;;;;;;;46.60;26.52;;;;;;;11.68;50.54;98318.34;1814953;77;21124;-61
2021/03/04 11:15:44;;;;;;;44.30;26.60;;;;;;;11.73;50.59;98312.72;1739515;80;21292;-62
2021/03/04 11:18:13;;;;;;;48.63;27.35;;;;;;;11.89;50.38;98305.34;1818625;78;21160;-62
2021/03/04 11:20:42;;;;;;;43.58;26.12;;;;;;;12.03;50.06;98308.28;1818880;78;21262;-61
2021/03/04 11:23:11;;;;;;;41.23;25.88;;;;;;;12.12;50.12;98300.48;1816956;78;21218;-62
2021/03/04 11:25:40;;;;;;;39.75;24.98;;;;;;;12.16;50.06;98300.45;1813177;78;21785;-61
2021/03/04 11:28:08;;;;;;;39.67;24.02;;;;;;;12.03;50.28;98297.94;1806309;78;21207;-61
2021/03/04 11:30:36;;;;;;;43.83;25.88;;;;;;;11.90;50.68;98286.36;1805456;79;21289;-61
2021/03/04 11:33:07;;;;;;;43.87;26.33;;;;;;;11.85;50.84;98286.78;1811992;78;21735;-62
2021/03/04 11:35:35;;;;;;;44.50;26.17;;;;;;;11.79;51.12;98286.83;1831102;78;21193;-62
2021/03/04 11:38:03;;;;;;;43.17;26.73;;;;;;;11.77;51.30;98283.83;1807173;78;21086;-63
2021/03/04 11:40:31;;;;;;;41.00;24.87;;;;;;;11.76;51.40;98273.92;1736747;82;21142;-61